Time;durP1;ratioP1;P1;durP2;ratioP2;P2;SDS_P1;SDS_P2;PMS_P1;PMS_P2;Temp;Humidity;BMP_temperature;BMP_pressure;BME280_temperature;BME280_humidity;BME280_pressure;Samples;Min_cycle;Max_cycle;Signal;HPM_P1;HPM_P2
2021/01/11 00:02:04;;;;;;;49.15;23.52;;;;;;;-2.68;93.64;101211.94;1781502;80;21144;-75
2021/01/11 00:04:31;;;;;;;55.75;25.60;;;;;;;-2.66;93.62;101207.48;1747814;81;21272;-74
2021/01/11 00:06:57;;;;;;;59.35;26.75;;;;;;;-2.65;93.63;101209.19;1740415;81;21181;-75
2021/01/11 00:09:23;;;;;;;59.40;27.50;;;;;;;-2.64;93.63;101204.81;1723924;83;21171;-75
2021/01/11 00:11:50;;;;;;;70.10;28.07;;;;;;;-2.64;93.62;101197.80;1731860;82;21192;-74
2021/01/11 00:14:16;;;;;;;66.50;27.93;;;;;;;-2.65;93.63;101196.13;1732172;82;21673;-74
2021/01/11 00:16:43;;;;;;;76.82;30.92;;;;;;;-2.66;93.62;101197.48;1734882;79;21202;-75
2021/01/11 00:19:09;;;;;;;63.75;26.85;;;;;;;-2.66;93.62;101198.34;1757305;79;21214;-75
2021/01/11 00:21:35;;;;;;;50.50;25.57;;;;;;;-2.64;93.63;101199.11;1750107;81;21611;-74
2021/01/11 00:24:02;;;;;;;59.75;27.00;;;;;;;-2.61;93.61;101196.84;1750579;81;21518;-75
2021/01/11 00:26:28;;;;;;;54.80;24.92;;;;;;;-2.63;93.62;101192.98;1750426;81;21521;-75
2021/01/11 00:28:55;;;;;;;53.98;24.27;;;;;;;-2.61;93.62;101194.23;1750003;81;21146;-75
2021/01/11 00:31:23;;;;;;;58.58;25.40;;;;;;;-2.61;93.63;101188.56;1751994;80;21516;-75
2021/01/11 00:33:50;;;;;;;64.47;25.15;;;;;;;-2.59;93.63;101181.50;1779999;79;21170;-76
2021/01/11 00:36:16;;;;;;;57.30;26.00;;;;;;;-2.58;93.63;101179.29;1787827;79;21209;-74
2021/01/11 00:38:42;;;;;;;49.13;24.43;;;;;;;-2.56;93.62;101185.27;1755250;81;21604;-75
2021/01/11 00:41:20;;;;;;;51.85;25.97;;;;;;;-2.53;93.64;101189.05;1744516;81;21231;-75
2021/01/11 00:43:48;;;;;;;50.23;24.43;;;;;;;-2.48;93.63;101184.94;1729358;81;21203;-75
2021/01/11 00:46:25;;;;;;;47.38;21.57;;;;;;;-2.45;93.63;101183.95;1724198;83;21710;-75
2021/01/11 00:48:51;;;;;;;49.25;22.75;;;;;;;-2.44;93.63;101186.50;1724643;82;22217;-75
2021/01/11 00:51:18;;;;;;;46.53;21.02;;;;;;;-2.41;93.61;101186.36;1733959;82;21175;-75
2021/01/11 00:53:44;;;;;;;43.38;22.35;;;;;;;-2.38;93.61;101195.81;1734002;82;21208;-75
2021/01/11 00:56:14;;;;;;;44.63;23.35;;;;;;;-2.38;93.61;101197.12;1733928;82;21139;-75
2021/01/11 00:58:40;;;;;;;46.42;24.10;;;;;;;-2.39;93.59;101196.75;1733633;82;21203;-75
2021/01/11 01:01:11;;;;;;;50.83;24.85;;;;;;;-2.37;93.60;101194.91;1734088;82;21212;-75
2021/01/11 01:03:39;;;;;;;44.75;22.55;;;;;;;-2.37;93.60;101201.44;1733962;82;21184;-75
2021/01/11 01:06:07;;;;;;;47.23;22.65;;;;;;;-2.35;93.60;101195.22;1733772;82;21282;-75
2021/01/11 01:08:34;;;;;;;57.33;25.48;;;;;;;-2.32;93.60;101192.95;1733949;82;21167;-75
2021/01/11 01:11:00;;;;;;;55.20;24.43;;;;;;;-2.33;93.62;101197.78;1722373;82;21246;-75
2021/01/11 01:13:26;;;;;;;52.80;24.43;;;;;;;-2.32;93.62;101195.56;1704137;84;21611;-75
2021/01/11 01:15:52;;;;;;;64.80;32.98;;;;;;;-2.33;93.62;101201.70;1703919;84;21215;-75
2021/01/11 01:18:19;;;;;;;54.35;27.00;;;;;;;-2.37;93.63;101197.52;1706000;82;21210;-75
2021/01/11 01:20:45;;;;;;;59.88;25.82;;;;;;;-2.41;93.64;101207.70;1732937;82;21159;-75
2021/01/11 01:23:11;;;;;;;47.53;22.93;;;;;;;-2.44;93.66;101201.32;1727047;82;21170;-75
2021/01/11 01:25:40;;;;;;;51.40;24.87;;;;;;;-2.43;93.65;101196.49;1719490;83;21219;-74
2021/01/11 01:28:07;;;;;;;51.73;24.47;;;;;;;-2.40;93.66;101195.91;1703695;84;21236;-74
2021/01/11 01:30:34;;;;;;;50.00;23.60;;;;;;;-2.38;93.64;101190.14;1674214;85;21176;-75
2021/01/11 01:33:00;;;;;;;49.27;23.60;;;;;;;-2.38;93.65;101182.75;1693360;84;22378;-75
2021/01/11 01:35:27;;;;;;;49.13;22.13;;;;;;;-2.36;93.67;101184.41;1703617;84;21140;-74
2021/01/11 01:37:53;;;;;;;44.73;20.48;;;;;;;-2.34;93.65;101184.32;1742321;82;21870;-75
2021/01/11 01:40:19;;;;;;;47.20;21.40;;;;;;;-2.32;93.65;101181.20;1714276;83;21173;-74
2021/01/11 01:42:45;;;;;;;44.98;21.82;;;;;;;-2.32;93.63;101186.42;1703958;84;22056;-74
2021/01/11 01:45:12;;;;;;;53.98;23.25;;;;;;;-2.33;93.64;101177.73;1719893;82;21212;-74
2021/01/11 01:47:40;;;;;;;46.77;24.57;;;;;;;-2.32;93.65;101185.12;1724467;83;21185;-74
2021/01/11 01:50:08;;;;;;;51.98;24.30;;;;;;;-2.39;93.66;101183.70;1726508;83;21156;-74
2021/01/11 01:52:38;;;;;;;51.33;24.07;;;;;;;-2.41;93.69;101188.12;1725703;82;21136;-75
2021/01/11 01:55:06;;;;;;;49.00;22.90;;;;;;;-2.41;93.67;101190.73;1704617;84;21209;-75
2021/01/11 01:57:32;;;;;;;44.77;21.80;;;;;;;-2.42;93.67;101187.27;1678312;84;21202;-75
2021/01/11 01:59:58;;;;;;;56.68;23.70;;;;;;;-2.44;93.65;101179.98;1704497;84;21588;-75
2021/01/11 02:02:25;;;;;;;52.45;23.73;;;;;;;-2.44;93.68;101176.52;1704885;84;21171;-75
2021/01/11 02:04:51;;;;;;;56.08;26.10;;;;;;;-2.46;93.65;101177.88;1704282;83;21583;-75
2021/01/11 02:07:51;;;;;;;49.53;24.98;;;;;;;-2.45;93.67;101177.42;1704685;83;21186;-75
2021/01/11 02:11:04;;;;;;;44.30;20.70;;;;;;;-2.46;93.67;101180.48;1704358;84;21493;-75
2021/01/11 02:13:36;;;;;;;43.02;18.75;;;;;;;-2.47;93.66;101167.52;1704287;82;22075;-76
2021/01/11 02:16:20;;;;;;;43.13;19.85;;;;;;;-2.50;93.66;101176.80;1704655;84;22026;-75
2021/01/11 02:19:15;;;;;;;38.53;19.00;;;;;;;-2.54;93.67;101174.33;1696995;84;21139;-75
2021/01/11 02:22:07;;;;;;;45.83;21.35;;;;;;;-2.50;93.67;101178.09;1693249;84;21648;-75
2021/01/11 02:24:57;;;;;;;41.68;19.00;;;;;;;-2.50;93.67;101172.42;1676277;85;21228;-75
2021/01/11 02:27:54;;;;;;;41.10;18.40;;;;;;;-2.52;93.66;101171.17;1695237;83;21174;-76
2021/01/11 02:30:36;;;;;;;35.55;17.45;;;;;;;-2.48;93.65;101157.98;1698092;84;21619;-75
2021/01/11 02:33:11;;;;;;;42.40;20.02;;;;;;;-2.48;93.65;101161.44;1698569;84;21215;-75
2021/01/11 02:36:03;;;;;;;40.60;19.48;;;;;;;-2.47;93.65;101159.69;1698221;84;21215;-75
2021/01/11 02:38:29;;;;;;;40.30;19.50;;;;;;;-2.47;93.67;101160.98;1698119;84;21585;-75
2021/01/11 02:40:56;;;;;;;37.93;17.65;;;;;;;-2.44;93.67;101156.93;1698467;84;21179;-75
2021/01/11 02:43:22;;;;;;;36.77;17.27;;;;;;;-2.45;93.65;101157.84;1698240;84;21148;-75
2021/01/11 02:45:50;;;;;;;33.13;16.20;;;;;;;-2.45;93.66;101153.92;1736551;82;21163;-75
2021/01/11 02:48:23;;;;;;;33.02;17.15;;;;;;;-2.46;93.65;101157.47;1735568;82;21392;-75
2021/01/11 02:51:21;;;;;;;32.60;15.95;;;;;;;-2.48;93.65;101154.91;1751072;81;21127;-75
2021/01/11 02:54:18;;;;;;;31.17;15.03;;;;;;;-2.49;93.65;101151.05;1724728;81;21128;-75
2021/01/11 02:56:49;;;;;;;32.33;15.15;;;;;;;-2.52;93.67;101143.76;1750764;81;21123;-76
2021/01/11 02:59:23;;;;;;;32.25;15.38;;;;;;;-2.55;93.68;101145.20;1724575;83;21116;-76
2021/01/11 03:02:10;;;;;;;30.70;15.68;;;;;;;-2.57;93.68;101137.88;1751140;81;22145;-75
2021/01/11 03:04:37;;;;;;;28.92;14.50;;;;;;;-2.58;93.67;101141.88;1724137;83;21176;-76
2021/01/11 03:07:06;;;;;;;28.02;15.13;;;;;;;-2.65;93.68;101128.27;1723869;81;21172;-76
2021/01/11 03:09:36;;;;;;;31.15;16.05;;;;;;;-2.65;93.68;101124.80;1724623;83;21577;-75
2021/01/11 03:12:03;;;;;;;28.65;14.90;;;;;;;-2.67;93.67;101126.61;1751338;81;21163;-75
2021/01/11 03:14:29;;;;;;;45.48;17.00;;;;;;;-2.71;93.67;101124.59;1724489;83;21203;-76
2021/01/11 03:16:55;;;;;;;31.35;15.60;;;;;;;-2.72;93.68;101125.99;1750978;80;21187;-76
2021/01/11 03:19:22;;;;;;;24.00;13.70;;;;;;;-2.78;93.67;101119.75;1724468;82;21149;-75
2021/01/11 03:21:49;;;;;;;26.48;13.65;;;;;;;-2.77;93.68;101119.66;1751051;81;21250;-76
2021/01/11 03:24:19;;;;;;;26.35;13.10;;;;;;;-2.75;93.68;101116.54;1724694;83;21181;-76
2021/01/11 03:26:46;;;;;;;28.07;14.45;;;;;;;-2.72;93.69;101115.09;1750868;81;21167;-76
2021/01/11 03:29:13;;;;;;;28.00;15.25;;;;;;;-2.71;93.68;101112.85;1724628;82;21604;-76
2021/01/11 03:31:40;;;;;;;28.75;14.20;;;;;;;-2.70;93.68;101116.31;1751047;81;21139;-76
2021/01/11 03:34:07;;;;;;;32.98;14.95;;;;;;;-2.71;93.68;101112.85;1724449;82;21149;-76
2021/01/11 03:36:34;;;;;;;29.75;15.05;;;;;;;-2.72;93.66;101109.88;1751098;81;21159;-76
2021/01/11 03:39:01;;;;;;;29.10;14.45;;;;;;;-2.72;93.66;101110.33;1724436;83;21260;-75
2021/01/11 03:41:27;;;;;;;30.88;16.02;;;;;;;-2.73;93.67;101104.71;1751112;81;21196;-75
2021/01/11 03:43:53;;;;;;;32.30;16.67;;;;;;;-2.74;93.67;101104.31;1724407;82;21144;-75
2021/01/11 03:46:19;;;;;;;30.40;15.80;;;;;;;-2.78;93.67;101100.99;1754425;81;21127;-75
2021/01/11 03:48:46;;;;;;;35.95;16.35;;;;;;;-2.78;93.66;101091.86;1732031;82;21609;-75
2021/01/11 03:51:13;;;;;;;34.55;15.43;;;;;;;-2.79;93.67;101091.49;1754278;81;22205;-75
2021/01/11 03:53:40;;;;;;;30.27;15.90;;;;;;;-2.84;93.67;101083.01;1732747;82;21164;-76
2021/01/11 03:56:07;;;;;;;38.55;16.70;;;;;;;-2.85;93.68;101082.61;1754570;81;21155;-76
2021/01/11 03:58:33;;;;;;;28.75;14.98;;;;;;;-2.87;93.68;101081.84;1723031;83;21172;-76
2021/01/11 04:01:00;;;;;;;33.00;15.30;;;;;;;-2.92;93.68;101086.41;1754221;81;21568;-76
2021/01/11 04:03:27;;;;;;;29.82;15.68;;;;;;;-2.94;93.67;101087.40;1732938;82;21216;-76
2021/01/11 04:05:54;;;;;;;29.12;14.55;;;;;;;-2.95;93.69;101082.63;1754269;81;21604;-76
2021/01/11 04:08:20;;;;;;;33.13;16.57;;;;;;;-2.98;93.69;101080.16;1733032;82;21152;-76
2021/01/11 04:10:47;;;;;;;31.40;16.10;;;;;;;-2.99;93.69;101077.64;1754596;81;21135;-76
2021/01/11 04:13:13;;;;;;;30.82;15.55;;;;;;;-3.01;93.69;101080.30;1732834;81;21183;-76
2021/01/11 04:15:40;;;;;;;28.50;14.73;;;;;;;-3.05;93.69;101081.34;1754530;81;21257;-76
2021/01/11 04:18:06;;;;;;;29.70;14.63;;;;;;;-3.08;93.69;101075.81;1732629;82;21199;-75
2021/01/11 04:20:32;;;;;;;27.48;15.80;;;;;;;-3.08;93.68;101077.57;1754692;81;21109;-76
2021/01/11 04:22:59;;;;;;;27.73;14.55;;;;;;;-3.13;93.69;101079.55;1732414;82;21191;-76
2021/01/11 04:25:26;;;;;;;27.30;14.10;;;;;;;-3.15;93.70;101076.14;1754325;81;21211;-76
2021/01/11 04:27:58;;;;;;;22.02;12.75;;;;;;;-3.15;93.69;101080.05;1763244;81;22248;-76
2021/01/11 04:30:25;;;;;;;28.17;13.58;;;;;;;-3.13;93.69;101068.63;1785515;80;21198;-75
2021/01/11 04:32:53;;;;;;;27.52;14.85;;;;;;;-3.11;93.69;101068.58;1785591;80;21127;-75
2021/01/11 04:35:21;;;;;;;43.87;15.50;;;;;;;-3.11;93.67;101068.58;1785694;80;21540;-75
2021/01/11 04:37:48;;;;;;;37.65;15.15;;;;;;;-3.13;93.67;101073.03;1785784;80;21176;-75
2021/01/11 04:40:15;;;;;;;24.30;13.48;;;;;;;-3.13;93.68;101069.12;1785493;80;21205;-75
2021/01/11 04:43:03;;;;;;;28.85;13.95;;;;;;;-3.13;93.68;101069.12;1785587;80;21191;-75
2021/01/11 04:45:30;;;;;;;28.32;14.13;;;;;;;-3.13;93.68;101059.50;1785282;80;21128;-75
2021/01/11 04:47:59;;;;;;;30.80;14.47;;;;;;;-3.11;93.69;101054.23;1785048;80;21123;-75
2021/01/11 04:50:26;;;;;;;26.82;14.58;;;;;;;-3.10;93.67;101058.55;1785175;80;21160;-75
2021/01/11 04:52:53;;;;;;;29.32;13.98;;;;;;;-3.12;93.68;101048.17;1784866;80;21258;-75
2021/01/11 04:55:20;;;;;;;35.60;16.30;;;;;;;-3.13;93.67;101052.98;1785034;80;21146;-75
2021/01/11 04:57:55;;;;;;;38.45;16.35;;;;;;;-3.14;93.68;101045.25;1784937;80;21596;-75
2021/01/11 05:00:27;;;;;;;28.92;14.90;;;;;;;-3.16;93.68;101049.66;1785150;80;21159;-75
2021/01/11 05:02:59;;;;;;;30.27;13.30;;;;;;;-3.18;93.69;101050.20;1784923;80;21172;-75
2021/01/11 05:05:28;;;;;;;28.07;13.78;;;;;;;-3.19;93.68;101061.09;1785244;80;21211;-75
2021/01/11 05:07:54;;;;;;;30.43;15.60;;;;;;;-3.22;93.68;101059.06;1785076;80;21136;-76
2021/01/11 05:10:27;;;;;;;31.02;13.80;;;;;;;-3.24;93.68;101050.48;1784492;80;21703;-75
2021/01/11 05:12:57;;;;;;;33.67;14.30;;;;;;;-3.23;93.67;101053.45;1785089;80;21191;-75
2021/01/11 05:15:39;;;;;;;28.92;14.63;;;;;;;-3.20;93.67;101045.53;1810813;77;28686;-75
2021/01/11 05:18:14;;;;;;;28.32;15.13;;;;;;;-3.25;93.69;101039.65;1796416;79;21615;-75
2021/01/11 05:20:40;;;;;;;28.57;14.53;;;;;;;-3.25;93.70;101043.56;1796788;79;21196;-75
2021/01/11 05:23:14;;;;;;;28.07;13.95;;;;;;;-3.27;93.69;101048.83;1796815;79;21437;-76
2021/01/11 05:25:42;;;;;;;27.42;14.23;;;;;;;-3.28;93.68;101045.00;1796917;79;21136;-75
2021/01/11 05:28:14;;;;;;;25.65;13.50;;;;;;;-3.26;93.69;101048.38;1796516;79;21198;-75
2021/01/11 05:30:45;;;;;;;29.87;15.72;;;;;;;-3.28;93.69;101038.03;1796920;79;21140;-75
2021/01/11 05:33:22;;;;;;;28.85;14.98;;;;;;;-3.27;93.67;101034.97;1796521;79;21236;-75
2021/01/11 05:36:05;;;;;;;29.32;14.63;;;;;;;-3.27;93.69;101028.45;1796845;79;21580;-75
2021/01/11 05:38:34;;;;;;;27.02;12.82;;;;;;;-3.28;93.67;101024.99;1796745;79;21630;-75
2021/01/11 05:41:20;;;;;;;27.47;13.73;;;;;;;-3.29;93.68;101025.05;1796984;79;21177;-75
2021/01/11 05:44:08;;;;;;;27.80;13.53;;;;;;;-3.31;93.68;101022.98;1796772;79;21635;-75
2021/01/11 05:46:34;;;;;;;26.95;13.68;;;;;;;-3.30;93.67;101023.34;1796746;79;21203;-75
2021/01/11 05:49:03;;;;;;;29.27;14.33;;;;;;;-3.32;93.68;101031.70;1796628;79;21116;-75
2021/01/11 05:51:30;;;;;;;27.40;13.72;;;;;;;-3.32;93.67;101026.03;1796820;79;21119;-75
2021/01/11 05:53:57;;;;;;;28.45;15.00;;;;;;;-3.32;93.66;101022.58;1796516;79;21167;-75
2021/01/11 05:56:24;;;;;;;29.20;13.58;;;;;;;-3.31;93.66;101017.77;1796819;79;21115;-75
2021/01/11 05:59:09;;;;;;;30.50;15.78;;;;;;;-3.32;93.66;101029.09;1796636;79;21246;-75
2021/01/11 06:01:37;;;;;;;29.98;13.55;;;;;;;-3.32;93.66;101030.40;1775457;79;21198;-75
2021/01/11 06:04:04;;;;;;;26.25;13.80;;;;;;;-3.34;93.67;101026.55;1765248;81;21155;-75
2021/01/11 06:06:31;;;;;;;28.62;13.70;;;;;;;-3.37;93.67;101031.04;1765173;81;21162;-75
2021/01/11 06:08:57;;;;;;;32.50;14.75;;;;;;;-3.40;93.67;101029.87;1765296;81;21118;-75
2021/01/11 06:11:25;;;;;;;30.62;15.28;;;;;;;-3.41;93.65;101030.81;1765288;81;22139;-75
2021/01/11 06:13:57;;;;;;;32.30;14.60;;;;;;;-3.43;93.66;101033.47;1763988;80;21699;-75
2021/01/11 06:16:28;;;;;;;59.15;21.73;;;;;;;-3.45;93.66;101039.22;1757083;81;21139;-75
2021/01/11 06:18:55;;;;;;;79.37;32.25;;;;;;;-3.46;93.66;101035.36;1757207;81;21147;-75
2021/01/11 06:21:21;;;;;;;61.90;29.02;;;;;;;-3.48;93.65;101037.20;1757036;81;21115;-75
2021/01/11 06:23:48;;;;;;;47.15;26.25;;;;;;;-3.52;93.66;101033.03;1757015;81;21242;-75
2021/01/11 06:26:31;;;;;;;38.53;17.77;;;;;;;-3.55;93.64;101034.83;1756546;81;21155;-76
2021/01/11 06:28:58;;;;;;;32.70;16.87;;;;;;;-3.57;93.64;101030.61;1756597;81;21174;-75
2021/01/11 06:31:33;;;;;;;30.75;16.48;;;;;;;-3.58;93.65;101036.72;1756432;80;21163;-75
2021/01/11 06:33:59;;;;;;;28.35;13.95;;;;;;;-3.60;93.63;101030.74;1756440;81;21139;-75
2021/01/11 06:36:31;;;;;;;27.02;14.28;;;;;;;-3.59;93.65;101033.27;1723029;81;22193;-75
2021/01/11 06:39:08;;;;;;;27.07;13.85;;;;;;;-3.58;93.62;101040.18;1756486;81;21651;-75
2021/01/11 06:41:35;;;;;;;32.85;15.80;;;;;;;-3.59;93.62;101031.14;1722673;81;21191;-76
2021/01/11 06:44:08;;;;;;;25.05;13.03;;;;;;;-3.60;93.62;101035.50;1756258;81;21561;-76
2021/01/11 06:46:43;;;;;;;28.62;14.60;;;;;;;-3.60;93.62;101028.98;1756953;79;21569;-75
2021/01/11 06:49:27;;;;;;;27.17;13.10;;;;;;;-3.56;93.62;101027.09;1757366;79;21160;-75
2021/01/11 06:52:09;;;;;;;32.75;14.43;;;;;;;-3.55;93.60;101025.71;1755308;80;21215;-75
2021/01/11 06:54:41;;;;;;;30.75;13.98;;;;;;;-3.52;93.61;101030.42;1756205;81;21227;-75
2021/01/11 06:57:13;;;;;;;26.10;12.90;;;;;;;-3.50;93.60;101029.44;1756484;81;21226;-75
2021/01/11 06:59:40;;;;;;;26.85;13.53;;;;;;;-3.46;93.60;101023.63;1756413;80;21131;-75
2021/01/11 07:02:25;;;;;;;24.80;12.55;;;;;;;-3.44;93.61;101025.70;1756586;81;22054;-75
2021/01/11 07:04:52;;;;;;;32.63;11.93;;;;;;;-3.43;93.61;101020.44;1756340;80;21156;-75
2021/01/11 07:07:24;;;;;;;29.75;13.88;;;;;;;-3.41;93.61;101019.08;1756683;80;21160;-75
2021/01/11 07:09:58;;;;;;;24.47;13.20;;;;;;;-3.39;93.61;101021.16;1756120;79;21167;-75
2021/01/11 07:12:26;;;;;;;24.30;13.08;;;;;;;-3.37;93.62;101011.03;1756261;81;21478;-75
2021/01/11 07:15:07;;;;;;;22.13;12.73;;;;;;;-3.31;93.62;101017.77;1756289;80;22083;-76
2021/01/11 07:17:35;;;;;;;21.25;11.33;;;;;;;-3.30;93.60;101016.83;1755661;81;21180;-76
2021/01/11 07:20:01;;;;;;;22.45;11.85;;;;;;;-3.27;93.61;101014.93;1756217;81;21188;-75
2021/01/11 07:22:27;;;;;;;23.92;10.82;;;;;;;-3.23;93.61;101015.64;1756192;81;21607;-76
2021/01/11 07:24:54;;;;;;;23.30;12.63;;;;;;;-3.21;93.60;101019.05;1756034;81;21156;-75
2021/01/11 07:27:20;;;;;;;18.62;11.03;;;;;;;-3.20;93.60;101009.02;1756261;80;21209;-75
2021/01/11 07:29:46;;;;;;;18.92;10.90;;;;;;;-3.15;93.61;101010.94;1756070;81;21581;-75
2021/01/11 07:32:12;;;;;;;20.02;11.25;;;;;;;-3.11;93.62;101009.89;1756229;80;21171;-75
2021/01/11 07:34:39;;;;;;;25.92;11.80;;;;;;;-3.04;93.59;101015.23;1755540;81;21140;-75
2021/01/11 07:37:06;;;;;;;31.48;14.85;;;;;;;-2.73;93.58;101012.06;1756128;81;21220;-75
2021/01/11 07:39:33;;;;;;;28.57;14.43;;;;;;;-2.18;93.46;101010.31;1755823;80;21200;-74
2021/01/11 07:42:04;;;;;;;43.30;18.02;;;;;;;-1.83;93.28;101010.70;1756057;81;21144;-75
2021/01/11 07:44:35;;;;;;;41.48;19.42;;;;;;;-1.82;93.20;101003.25;1756124;81;21126;-75
2021/01/11 07:47:11;;;;;;;34.40;16.90;;;;;;;-2.12;93.22;101006.94;1755131;80;21120;-75
2021/01/11 07:49:41;;;;;;;23.02;12.88;;;;;;;-2.31;93.30;101011.80;1756307;81;21124;-75
2021/01/11 07:52:09;;;;;;;26.37;13.03;;;;;;;-2.38;93.33;101013.86;1756115;81;21617;-75
2021/01/11 07:54:39;;;;;;;27.77;14.37;;;;;;;-2.44;93.35;101008.94;1756329;81;22311;-75
2021/01/11 07:57:12;;;;;;;23.40;12.60;;;;;;;-2.44;93.38;101008.94;1756237;81;21661;-75
2021/01/11 07:59:39;;;;;;;26.50;13.13;;;;;;;-2.46;93.41;101009.94;1756094;81;21645;-75
2021/01/11 08:02:13;;;;;;;24.25;11.80;;;;;;;-2.48;93.44;101014.38;1756203;81;21191;-75
2021/01/11 08:04:41;;;;;;;22.13;11.80;;;;;;;-2.46;93.45;101011.25;1756233;81;21703;-75
2021/01/11 08:07:09;;;;;;;23.57;11.57;;;;;;;-2.39;93.47;101013.95;1756196;80;21200;-75
2021/01/11 08:09:37;;;;;;;19.92;11.08;;;;;;;-2.30;93.51;101005.67;1756087;81;21191;-75
2021/01/11 08:12:11;;;;;;;18.98;11.20;;;;;;;-2.16;93.51;101008.46;1756364;80;21180;-75
2021/01/11 08:14:40;;;;;;;21.93;13.28;;;;;;;-2.02;93.54;101006.87;1756040;81;21135;-75
2021/01/11 08:17:24;;;;;;;24.85;10.78;;;;;;;-1.87;93.54;101010.50;1755854;81;22112;-76
2021/01/11 08:19:58;;;;;;;23.52;11.95;;;;;;;-1.78;93.55;100999.57;1756245;81;21573;-76
2021/01/11 08:22:27;;;;;;;29.37;13.70;;;;;;;-1.67;93.57;101005.11;1756080;80;21152;-75
2021/01/11 08:24:55;;;;;;;21.70;9.00;;;;;;;-1.59;93.57;101005.58;1756126;80;21207;-75
2021/01/11 08:27:33;;;;;;;29.10;12.82;;;;;;;-1.57;93.57;101005.02;1748814;80;21148;-75
2021/01/11 08:30:08;;;;;;;32.00;11.22;;;;;;;-1.53;93.59;101002.63;1744925;81;21243;-76
2021/01/11 08:32:34;;;;;;;38.60;17.45;;;;;;;-1.47;93.57;101008.45;1722213;81;21176;-75
2021/01/11 08:35:13;;;;;;;35.85;16.17;;;;;;;-1.43;93.58;101004.77;1695710;83;21616;-75
2021/01/11 08:37:39;;;;;;;42.35;19.25;;;;;;;-1.40;93.57;101005.45;1667577;84;21217;-75
2021/01/11 08:40:10;;;;;;;24.00;12.20;;;;;;;-1.39;93.58;101007.16;1695734;83;21139;-75
2021/01/11 08:42:38;;;;;;;22.98;12.37;;;;;;;-1.36;93.56;101006.98;1722570;83;21198;-75
2021/01/11 08:45:35;;;;;;;21.07;11.12;;;;;;;-1.31;93.57;101003.69;1691916;84;21175;-75
2021/01/11 08:48:16;;;;;;;24.47;13.58;;;;;;;-1.25;93.57;101004.67;1693308;84;21170;-76
2021/01/11 08:50:55;;;;;;;23.10;12.20;;;;;;;-1.22;93.59;101001.88;1708007;84;21154;-76
2021/01/11 08:53:31;;;;;;;24.27;12.18;;;;;;;-1.15;93.58;101005.87;1702294;84;21116;-76
2021/01/11 08:56:06;;;;;;;26.07;12.80;;;;;;;-1.12;93.58;101003.55;1699767;84;21139;-76
2021/01/11 08:58:33;;;;;;;20.97;10.85;;;;;;;-1.09;93.58;101003.41;1701961;84;21167;-75
2021/01/11 09:01:16;;;;;;;22.05;11.97;;;;;;;-1.04;93.60;101007.92;1701956;82;21167;-76
2021/01/11 09:03:55;;;;;;;26.57;13.93;;;;;;;-0.99;93.58;101007.22;1702043;84;21199;-75
2021/01/11 09:06:44;;;;;;;28.02;12.53;;;;;;;-0.92;93.58;101009.05;1698893;82;21144;-75
2021/01/11 09:09:14;;;;;;;18.73;10.72;;;;;;;-0.87;93.59;101009.16;1686029;82;21187;-75
2021/01/11 09:11:43;;;;;;;16.48;9.73;;;;;;;-0.83;93.60;101006.77;1694774;84;21168;-75
2021/01/11 09:14:18;;;;;;;17.48;9.65;;;;;;;-0.77;93.61;101016.91;1713736;81;21248;-75
2021/01/11 09:16:52;;;;;;;23.40;12.55;;;;;;;-0.70;93.59;101013.02;1699445;83;21200;-75
2021/01/11 09:19:19;;;;;;;21.73;11.40;;;;;;;-0.65;93.58;101014.94;1749451;81;21605;-75
2021/01/11 09:22:01;;;;;;;25.25;13.78;;;;;;;-0.58;93.59;101012.83;1738335;82;22056;-75
2021/01/11 09:24:28;;;;;;;25.32;12.13;;;;;;;-0.56;93.60;101017.50;1745974;81;21128;-76
2021/01/11 09:26:55;;;;;;;24.87;12.33;;;;;;;-0.50;93.59;101017.19;1743834;81;21172;-76
2021/01/11 09:29:21;;;;;;;23.83;11.48;;;;;;;-0.45;93.59;101016.91;1744043;81;21105;-76
2021/01/11 09:31:48;;;;;;;20.27;11.88;;;;;;;-0.38;93.58;101023.50;1741878;81;21208;-76
2021/01/11 09:34:15;;;;;;;19.12;10.10;;;;;;;-0.34;93.58;101014.55;1746449;80;21270;-76
2021/01/11 09:36:44;;;;;;;20.90;10.98;;;;;;;-0.32;93.58;101016.17;1707029;81;21143;-75
2021/01/11 09:39:10;;;;;;;22.60;11.33;;;;;;;-0.32;93.57;101014.86;1734644;81;21185;-76
2021/01/11 09:41:50;;;;;;;23.27;11.08;;;;;;;-0.32;93.58;101013.55;1744703;81;21614;-76
2021/01/11 09:44:16;;;;;;;21.07;10.60;;;;;;;-0.33;93.57;101012.31;1746852;80;21191;-76
2021/01/11 09:46:52;;;;;;;27.02;13.00;;;;;;;-0.36;93.55;101012.03;1703476;83;21536;-77
2021/01/11 09:49:19;;;;;;;36.63;17.90;;;;;;;-0.37;93.58;101005.09;1756624;81;21616;-77
2021/01/11 09:51:46;;;;;;;34.20;17.98;;;;;;;-0.32;93.57;101007.47;1710366;83;21218;-77
2021/01/11 09:54:12;;;;;;;35.80;19.62;;;;;;;-0.29;93.56;101000.73;1752614;81;21132;-76
2021/01/11 09:56:39;;;;;;;26.57;16.42;;;;;;;-0.24;93.55;100997.38;1749467;81;21140;-75
2021/01/11 09:59:09;;;;;;;37.53;19.77;;;;;;;-0.25;93.56;100998.33;1732430;81;22035;-81
2021/01/11 10:01:48;;;;;;;29.40;18.00;;;;;;;-0.20;93.55;101000.20;1723070;82;21703;-81
2021/01/11 10:04:17;;;;;;;23.42;13.48;;;;;;;-0.20;93.57;101001.52;1723154;81;21186;-81
2021/01/11 10:06:48;;;;;;;22.98;11.30;;;;;;;-0.19;93.56;100998.82;1760031;81;21193;-81
2021/01/11 10:09:18;;;;;;;36.75;15.95;;;;;;;-0.16;93.55;100996.48;1728990;81;21189;-81
2021/01/11 10:11:46;;;;;;;;;;;;;;;-0.09;93.53;100999.13;1755997;81;21640;-81
2021/01/11 10:14:13;;;;;;;35.98;17.30;;;;;;;-0.06;93.53;100997.64;1759239;81;20290;-82
2021/01/11 10:16:40;;;;;;;31.55;14.30;;;;;;;-0.05;93.54;101000.66;1753236;79;21185;-81
2021/01/11 10:19:11;;;;;;;42.13;20.50;;;;;;;-0.05;93.52;100998.88;1750059;81;21154;-82
2021/01/11 10:21:46;;;;;;;36.15;16.93;;;;;;;0.02;93.52;101000.68;1716159;81;21190;-81
2021/01/11 10:24:16;;;;;;;51.05;20.80;;;;;;;0.06;93.53;100998.27;1749157;81;21254;-80
2021/01/11 10:26:47;;;;;;;31.82;14.60;;;;;;;0.06;93.51;100998.27;1756270;80;21208;-80
2021/01/11 10:29:18;;;;;;;39.48;18.17;;;;;;;0.09;93.51;100988.91;1720057;81;21597;-81
2021/01/11 10:31:45;;;;;;;22.82;11.63;;;;;;;0.09;93.50;100992.84;1721620;82;22545;-81
2021/01/11 10:34:13;;;;;;;18.35;10.08;;;;;;;0.08;93.48;100985.89;1732704;82;21140;-81
2021/01/11 10:36:41;;;;;;;19.48;10.15;;;;;;;0.09;93.47;100982.34;1733232;82;21589;-82
2021/01/11 10:39:07;;;;;;;19.75;10.90;;;;;;;0.15;93.49;100979.83;1732514;82;21683;-82
2021/01/11 10:41:33;;;;;;;21.77;10.35;;;;;;;0.20;93.49;100986.50;1727511;82;21155;-81
2021/01/11 10:44:01;;;;;;;21.15;10.35;;;;;;;0.20;93.48;100974.70;1732956;82;21171;-81
2021/01/11 10:46:27;;;;;;;18.92;9.93;;;;;;;0.22;93.48;100979.84;1738210;81;21207;-80
2021/01/11 10:48:53;;;;;;;18.00;10.05;;;;;;;0.25;93.48;100980.97;1724751;81;21204;-81
2021/01/11 10:51:22;;;;;;;17.95;9.83;;;;;;;0.26;93.48;100984.83;1746151;82;21612;-82
2021/01/11 10:53:49;;;;;;;20.72;12.35;;;;;;;0.28;93.45;100980.32;1745751;81;22045;-81
2021/01/11 10:56:16;;;;;;;29.72;15.32;;;;;;;0.34;93.46;100977.36;1745904;81;21183;-81
2021/01/11 10:58:43;;;;;;;17.25;9.80;;;;;;;0.37;93.45;100974.55;1723336;81;21663;-80
2021/01/11 11:01:13;;;;;;;23.47;11.97;;;;;;;0.36;93.43;100974.62;1730680;82;21302;-80
2021/01/11 11:03:42;;;;;;;23.45;12.70;;;;;;;0.39;93.43;100971.81;1748732;82;21172;-81
2021/01/11 11:06:10;;;;;;;26.37;14.10;;;;;;;0.43;93.43;100969.39;1732296;82;21235;-81
2021/01/11 11:08:36;;;;;;;26.12;14.28;;;;;;;0.43;93.44;100961.06;1694012;83;21281;-82
2021/01/11 11:11:02;;;;;;;26.77;15.93;;;;;;;0.43;93.43;100963.69;1703356;84;21173;-82
2021/01/11 11:13:30;;;;;;;19.30;11.60;;;;;;;0.43;93.44;100964.99;1703500;84;21780;-82
2021/01/11 11:15:57;;;;;;;20.02;11.03;;;;;;;0.40;93.46;100961.25;1716638;81;21255;-82
2021/01/11 11:18:24;;;;;;;16.45;9.20;;;;;;;0.39;93.44;100954.30;1738741;81;21768;-82
2021/01/11 11:20:50;;;;;;;18.02;10.65;;;;;;;0.39;93.42;100948.20;1724077;83;21163;-82
2021/01/11 11:23:16;;;;;;;17.48;10.25;;;;;;;0.43;93.41;100953.19;1725269;81;21172;-82
2021/01/11 11:25:44;;;;;;;17.95;10.75;;;;;;;0.45;93.39;100948.71;1692388;81;22589;-81